sensor_id;sensor_type;location;lat;lon;timestamp;pressure;altitude;pressure_sealevel;temperature;humidity
63088;BME280;49173;43.164;27.786;2022-08-25T00:01:34;100000.03;;;23.37;72.15
63088;BME280;49173;43.164;27.786;2022-08-25T00:04:05;100005.88;;;23.34;72.32
63088;BME280;49173;43.164;27.786;2022-08-25T00:06:31;100000.53;;;23.32;72.68
63088;BME280;49173;43.164;27.786;2022-08-25T00:08:57;100000.91;;;23.29;72.36
63088;BME280;49173;43.164;27.786;2022-08-25T00:11:27;99986.34;;;23.28;72.63
63088;BME280;49173;43.164;27.786;2022-08-25T00:13:57;99992.88;;;23.27;72.49
63088;BME280;49173;43.164;27.786;2022-08-25T00:16:25;99992.72;;;23.21;72.92
63088;BME280;49173;43.164;27.786;2022-08-25T00:18:55;99986.56;;;23.19;72.89
63088;BME280;49173;43.164;27.786;2022-08-25T00:21:21;99988.41;;;23.18;73.03
63088;BME280;49173;43.164;27.786;2022-08-25T00:23:48;99975.94;;;23.16;73.00
63088;BME280;49173;43.164;27.786;2022-08-25T00:26:15;99958.84;;;23.14;73.24
63088;BME280;49173;43.164;27.786;2022-08-25T00:28:42;99954.56;;;23.11;73.09
63088;BME280;49173;43.164;27.786;2022-08-25T00:31:14;99942.44;;;23.06;73.04
63088;BME280;49173;43.164;27.786;2022-08-25T00:33:42;99931.84;;;23.02;73.52
63088;BME280;49173;43.164;27.786;2022-08-25T00:36:09;99928.25;;;23.02;73.03
63088;BME280;49173;43.164;27.786;2022-08-25T00:38:38;99931.34;;;22.99;73.36
63088;BME280;49173;43.164;27.786;2022-08-25T00:41:07;99928.75;;;22.97;73.57
63088;BME280;49173;43.164;27.786;2022-08-25T00:46:12;99929.97;;;22.95;73.11
63088;BME280;49173;43.164;27.786;2022-08-25T00:48:39;99913.06;;;22.91;73.62
63088;BME280;49173;43.164;27.786;2022-08-25T00:51:08;99918.84;;;22.96;73.25
63088;BME280;49173;43.164;27.786;2022-08-25T00:53:37;99914.94;;;22.99;73.05
63088;BME280;49173;43.164;27.786;2022-08-25T00:56:04;99919.03;;;22.95;73.29
63088;BME280;49173;43.164;27.786;2022-08-25T00:58:32;99931.38;;;22.91;73.03
63088;BME280;49173;43.164;27.786;2022-08-25T01:00:59;99930.00;;;22.87;73.26
63088;BME280;49173;43.164;27.786;2022-08-25T01:03:28;99932.88;;;22.85;73.62
63088;BME280;49173;43.164;27.786;2022-08-25T01:05:55;99921.94;;;22.85;73.32
63088;BME280;49173;43.164;27.786;2022-08-25T01:08:23;99922.13;;;22.84;73.42
63088;BME280;49173;43.164;27.786;2022-08-25T01:10:53;99912.88;;;22.85;73.22
63088;BME280;49173;43.164;27.786;2022-08-25T01:13:40;99907.94;;;22.88;73.19
63088;BME280;49173;43.164;27.786;2022-08-25T01:16:06;99902.63;;;22.87;73.02
63088;BME280;49173;43.164;27.786;2022-08-25T01:18:54;99887.91;;;22.88;73.08
63088;BME280;49173;43.164;27.786;2022-08-25T01:21:27;99877.50;;;22.91;73.03
63088;BME280;49173;43.164;27.786;2022-08-25T01:23:55;99871.84;;;22.93;72.94
63088;BME280;49173;43.164;27.786;2022-08-25T01:26:28;99875.75;;;22.90;72.58
63088;BME280;49173;43.164;27.786;2022-08-25T01:28:54;99876.97;;;22.88;72.46
63088;BME280;49173;43.164;27.786;2022-08-25T01:31:40;99876.63;;;22.91;71.99
63088;BME280;49173;43.164;27.786;2022-08-25T01:34:07;99869.28;;;22.91;72.01
63088;BME280;49173;43.164;27.786;2022-08-25T01:36:34;99861.91;;;22.92;71.51
63088;BME280;49173;43.164;27.786;2022-08-25T01:39:02;99861.22;;;22.90;71.41
63088;BME280;49173;43.164;27.786;2022-08-25T01:43:55;99848.72;;;22.95;70.52
63088;BME280;49173;43.164;27.786;2022-08-25T01:46:21;99844.78;;;22.98;70.28
63088;BME280;49173;43.164;27.786;2022-08-25T01:48:47;99855.38;;;23.01;70.07
63088;BME280;49173;43.164;27.786;2022-08-25T01:51:19;99851.41;;;23.03;70.12
63088;BME280;49173;43.164;27.786;2022-08-25T01:53:45;99855.91;;;23.05;70.19
63088;BME280;49173;43.164;27.786;2022-08-25T01:56:13;99852.13;;;23.06;70.02
63088;BME280;49173;43.164;27.786;2022-08-25T01:58:43;99851.09;;;23.07;70.12
63088;BME280;49173;43.164;27.786;2022-08-25T02:01:16;99847.84;;;23.03;69.65
63088;BME280;49173;43.164;27.786;2022-08-25T02:03:45;99840.31;;;23.05;69.85
63088;BME280;49173;43.164;27.786;2022-08-25T02:06:14;99845.94;;;23.03;69.73
63088;BME280;49173;43.164;27.786;2022-08-25T02:08:41;99849.06;;;23.00;68.90
63088;BME280;49173;43.164;27.786;2022-08-25T02:11:14;99846.50;;;22.99;68.83
63088;BME280;49173;43.164;27.786;2022-08-25T02:13:41;99834.16;;;23.03;68.79
63088;BME280;49173;43.164;27.786;2022-08-25T02:16:08;99834.00;;;23.05;68.38
63088;BME280;49173;43.164;27.786;2022-08-25T02:18:34;99832.09;;;23.05;68.43
63088;BME280;49173;43.164;27.786;2022-08-25T02:21:01;99819.28;;;23.06;68.06
63088;BME280;49173;43.164;27.786;2022-08-25T02:23:27;99829.19;;;23.07;68.13
63088;BME280;49173;43.164;27.786;2022-08-25T02:25:53;99833.63;;;23.08;67.90
63088;BME280;49173;43.164;27.786;2022-08-25T02:28:21;99830.03;;;23.07;68.40
63088;BME280;49173;43.164;27.786;2022-08-25T02:30:47;99837.59;;;23.05;68.56
63088;BME280;49173;43.164;27.786;2022-08-25T02:33:13;99840.47;;;23.03;68.50
63088;BME280;49173;43.164;27.786;2022-08-25T02:35:39;99844.44;;;23.01;68.44
63088;BME280;49173;43.164;27.786;2022-08-25T02:38:05;99835.56;;;22.99;68.40
63088;BME280;49173;43.164;27.786;2022-08-25T02:40:31;99831.78;;;23.00;67.89
63088;BME280;49173;43.164;27.786;2022-08-25T02:42:57;99827.69;;;22.96;67.93
63088;BME280;49173;43.164;27.786;2022-08-25T02:45:23;99831.44;;;22.95;67.68
63088;BME280;49173;43.164;27.786;2022-08-25T02:47:49;99843.06;;;22.97;67.58
63088;BME280;49173;43.164;27.786;2022-08-25T02:50:15;99844.09;;;22.96;67.35
63088;BME280;49173;43.164;27.786;2022-08-25T02:52:41;99841.69;;;23.01;67.78
63088;BME280;49173;43.164;27.786;2022-08-25T02:55:09;99844.63;;;22.99;67.32
63088;BME280;49173;43.164;27.786;2022-08-25T02:57:39;99838.44;;;22.97;67.27
63088;BME280;49173;43.164;27.786;2022-08-25T03:00:08;99843.06;;;22.97;67.32
63088;BME280;49173;43.164;27.786;2022-08-25T03:02:34;99835.88;;;22.96;67.38
63088;BME280;49173;43.164;27.786;2022-08-25T03:05:00;99850.44;;;22.96;66.79
63088;BME280;49173;43.164;27.786;2022-08-25T03:07:26;99851.63;;;22.94;67.27
63088;BME280;49173;43.164;27.786;2022-08-25T03:09:52;99856.94;;;22.95;67.32
63088;BME280;49173;43.164;27.786;2022-08-25T03:12:18;99853.53;;;22.93;67.02
63088;BME280;49173;43.164;27.786;2022-08-25T03:14:44;99866.00;;;22.96;67.20
63088;BME280;49173;43.164;27.786;2022-08-25T03:17:10;99861.91;;;22.92;67.36
63088;BME280;49173;43.164;27.786;2022-08-25T03:19:36;99867.53;;;22.90;66.81
63088;BME280;49173;43.164;27.786;2022-08-25T03:22:02;99865.00;;;22.89;67.45
63088;BME280;49173;43.164;27.786;2022-08-25T03:24:28;99870.13;;;22.84;67.22
63088;BME280;49173;43.164;27.786;2022-08-25T03:26:54;99871.16;;;22.74;67.17
63088;BME280;49173;43.164;27.786;2022-08-25T03:29:29;99869.81;;;22.70;67.34
63088;BME280;49173;43.164;27.786;2022-08-25T03:31:56;99880.44;;;22.57;67.87
63088;BME280;49173;43.164;27.786;2022-08-25T03:34:25;99872.06;;;22.59;67.86
63088;BME280;49173;43.164;27.786;2022-08-25T03:36:53;99872.56;;;22.62;67.54
63088;BME280;49173;43.164;27.786;2022-08-25T03:39:22;99870.69;;;22.63;67.28
63088;BME280;49173;43.164;27.786;2022-08-25T03:41:49;99871.69;;;22.62;67.37
63088;BME280;49173;43.164;27.786;2022-08-25T03:44:17;99879.22;;;22.60;67.75
63088;BME280;49173;43.164;27.786;2022-08-25T03:46:45;99874.09;;;22.65;67.52
63088;BME280;49173;43.164;27.786;2022-08-25T03:49:14;99882.31;;;22.65;67.64
63088;BME280;49173;43.164;27.786;2022-08-25T03:51:45;99881.44;;;22.64;67.49
63088;BME280;49173;43.164;27.786;2022-08-25T03:54:16;99874.09;;;22.65;67.25
63088;BME280;49173;43.164;27.786;2022-08-25T03:56:43;99880.25;;;22.67;67.47
63088;BME280;49173;43.164;27.786;2022-08-25T03:59:10;99872.22;;;22.65;67.52
63088;BME280;49173;43.164;27.786;2022-08-25T04:01:38;99877.69;;;22.65;67.52
63088;BME280;49173;43.164;27.786;2022-08-25T04:04:06;99878.34;;;22.67;67.46
63088;BME280;49173;43.164;27.786;2022-08-25T04:06:32;99870.16;;;22.67;67.60
63088;BME280;49173;43.164;27.786;2022-08-25T04:08:58;99878.03;;;22.70;67.80
63088;BME280;49173;43.164;27.786;2022-08-25T04:11:25;99878.19;;;22.69;67.60
63088;BME280;49173;43.164;27.786;2022-08-25T04:13:54;99868.44;;;22.66;67.75
63088;BME280;49173;43.164;27.786;2022-08-25T04:16:23;99882.78;;;22.68;67.50
63088;BME280;49173;43.164;27.786;2022-08-25T04:18:51;99873.88;;;22.74;67.88
63088;BME280;49173;43.164;27.786;2022-08-25T04:21:18;99872.72;;;22.77;67.85
63088;BME280;49173;43.164;27.786;2022-08-25T04:23:46;99871.69;;;22.78;67.72
63088;BME280;49173;43.164;27.786;2022-08-25T04:26:19;99867.53;;;22.82;67.52
63088;BME280;49173;43.164;27.786;2022-08-25T04:28:46;99869.25;;;22.83;67.57
63088;BME280;49173;43.164;27.786;2022-08-25T04:31:14;99865.84;;;22.81;67.32
63088;BME280;49173;43.164;27.786;2022-08-25T04:33:40;99865.00;;;22.81;67.14
63088;BME280;49173;43.164;27.786;2022-08-25T04:36:07;99875.94;;;22.81;67.22
63088;BME280;49173;43.164;27.786;2022-08-25T04:38:37;99870.47;;;22.81;67.40
63088;BME280;49173;43.164;27.786;2022-08-25T04:41:05;99881.06;;;22.84;66.96
63088;BME280;49173;43.164;27.786;2022-08-25T04:43:34;99871.84;;;22.85;67.01
63088;BME280;49173;43.164;27.786;2022-08-25T04:46:05;99865.00;;;22.89;67.00
63088;BME280;49173;43.164;27.786;2022-08-25T04:48:31;99863.63;;;22.93;67.11
63088;BME280;49173;43.164;27.786;2022-08-25T04:50:57;99871.47;;;22.96;67.22
63088;BME280;49173;43.164;27.786;2022-08-25T04:53:23;99872.66;;;23.01;67.00
63088;BME280;49173;43.164;27.786;2022-08-25T04:55:50;99873.31;;;23.03;66.59
63088;BME280;49173;43.164;27.786;2022-08-25T04:58:16;99876.22;;;23.10;66.84
63088;BME280;49173;43.164;27.786;2022-08-25T05:00:42;99868.31;;;23.15;66.27
63088;BME280;49173;43.164;27.786;2022-08-25T05:03:08;99870.34;;;23.21;66.27
63088;BME280;49173;43.164;27.786;2022-08-25T05:05:36;99861.78;;;23.24;66.13
63088;BME280;49173;43.164;27.786;2022-08-25T05:08:04;99858.00;;;23.25;66.28
63088;BME280;49173;43.164;27.786;2022-08-25T05:10:32;99851.81;;;23.32;66.44
63088;BME280;49173;43.164;27.786;2022-08-25T05:12:59;99861.00;;;23.39;66.62
63088;BME280;49173;43.164;27.786;2022-08-25T05:15:25;99854.41;;;23.33;66.49
63088;BME280;49173;43.164;27.786;2022-08-25T05:18:10;99850.06;;;23.39;66.77
63088;BME280;49173;43.164;27.786;2022-08-25T05:20:36;99855.72;;;23.37;67.43
63088;BME280;49173;43.164;27.786;2022-08-25T05:23:03;99850.91;;;23.39;67.70
63088;BME280;49173;43.164;27.786;2022-08-25T05:25:29;99851.28;;;23.36;68.39
63088;BME280;49173;43.164;27.786;2022-08-25T05:27:55;99851.09;;;23.38;68.54
63088;BME280;49173;43.164;27.786;2022-08-25T05:30:21;99852.47;;;23.42;68.95
63088;BME280;49173;43.164;27.786;2022-08-25T05:32:47;99852.09;;;23.45;68.83
63088;BME280;49173;43.164;27.786;2022-08-25T05:35:13;99859.97;;;23.48;69.10
63088;BME280;49173;43.164;27.786;2022-08-25T05:37:41;99860.25;;;23.53;68.72
63088;BME280;49173;43.164;27.786;2022-08-25T05:40:07;99855.28;;;23.56;68.53
63088;BME280;49173;43.164;27.786;2022-08-25T05:42:34;99857.66;;;23.60;68.93
63088;BME280;49173;43.164;27.786;2022-08-25T05:45:00;99856.09;;;23.65;68.48
63088;BME280;49173;43.164;27.786;2022-08-25T05:47:26;99852.66;;;23.71;68.26
63088;BME280;49173;43.164;27.786;2022-08-25T05:49:52;99855.00;;;23.74;68.08
63088;BME280;49173;43.164;27.786;2022-08-25T05:52:17;99850.69;;;23.80;68.73
63088;BME280;49173;43.164;27.786;2022-08-25T05:54:44;99856.97;;;23.89;68.19
63088;BME280;49173;43.164;27.786;2022-08-25T05:57:11;99858.97;;;23.95;68.26
63088;BME280;49173;43.164;27.786;2022-08-25T05:59:36;99862.03;;;24.00;68.41
63088;BME280;49173;43.164;27.786;2022-08-25T06:02:02;99862.34;;;24.05;68.92
63088;BME280;49173;43.164;27.786;2022-08-25T06:04:47;99860.44;;;24.05;68.76
63088;BME280;49173;43.164;27.786;2022-08-25T06:07:12;99867.50;;;24.00;69.38
63088;BME280;49173;43.164;27.786;2022-08-25T06:09:40;99865.44;;;24.02;69.50
63088;BME280;49173;43.164;27.786;2022-08-25T06:12:07;99865.09;;;24.05;69.96
63088;BME280;49173;43.164;27.786;2022-08-25T06:14:33;99862.16;;;24.06;69.92
63088;BME280;49173;43.164;27.786;2022-08-25T06:16:59;99863.00;;;24.07;70.61
63088;BME280;49173;43.164;27.786;2022-08-25T06:19:25;99869.25;;;24.16;70.25
63088;BME280;49173;43.164;27.786;2022-08-25T06:21:53;99873.16;;;24.21;69.77
63088;BME280;49173;43.164;27.786;2022-08-25T06:24:20;99877.91;;;24.27;69.99
63088;BME280;49173;43.164;27.786;2022-08-25T06:26:45;99873.09;;;24.29;70.48
63088;BME280;49173;43.164;27.786;2022-08-25T06:29:12;99874.78;;;24.38;70.09
63088;BME280;49173;43.164;27.786;2022-08-25T06:31:40;99870.72;;;24.49;70.36
63088;BME280;49173;43.164;27.786;2022-08-25T06:34:07;99870.72;;;24.64;70.81
63088;BME280;49173;43.164;27.786;2022-08-25T06:36:33;99868.50;;;24.82;70.15
63088;BME280;49173;43.164;27.786;2022-08-25T06:38:59;99866.19;;;25.01;69.03
63088;BME280;49173;43.164;27.786;2022-08-25T06:41:25;99873.44;;;25.16;68.56
63088;BME280;49173;43.164;27.786;2022-08-25T06:43:52;99872.75;;;25.29;68.43
63088;BME280;49173;43.164;27.786;2022-08-25T06:46:22;99880.31;;;25.42;68.34
63088;BME280;49173;43.164;27.786;2022-08-25T06:48:49;99866.28;;;25.52;68.04
63088;BME280;49173;43.164;27.786;2022-08-25T06:51:17;99863.88;;;25.63;68.47
63088;BME280;49173;43.164;27.786;2022-08-25T06:53:44;99865.38;;;25.81;68.72
63088;BME280;49173;43.164;27.786;2022-08-25T06:56:14;99853.47;;;25.95;67.79
63088;BME280;49173;43.164;27.786;2022-08-25T06:58:40;99848.53;;;26.12;67.32
63088;BME280;49173;43.164;27.786;2022-08-25T07:01:21;99852.06;;;26.27;67.05
63088;BME280;49173;43.164;27.786;2022-08-25T07:03:54;99847.94;;;26.38;68.43
63088;BME280;49173;43.164;27.786;2022-08-25T07:06:22;99860.31;;;26.48;67.53
63088;BME280;49173;43.164;27.786;2022-08-25T07:08:49;99854.84;;;26.55;67.35
63088;BME280;49173;43.164;27.786;2022-08-25T07:11:15;99861.69;;;26.59;67.90
63088;BME280;49173;43.164;27.786;2022-08-25T07:13:41;99860.41;;;26.62;67.51
63088;BME280;49173;43.164;27.786;2022-08-25T07:16:07;99856.44;;;26.64;68.12
63088;BME280;49173;43.164;27.786;2022-08-25T07:18:35;99846.44;;;26.63;68.30
63088;BME280;49173;43.164;27.786;2022-08-25T07:21:02;99862.13;;;26.63;68.01
63088;BME280;49173;43.164;27.786;2022-08-25T07:23:28;99857.88;;;26.60;68.11
63088;BME280;49173;43.164;27.786;2022-08-25T07:25:54;99859.13;;;26.58;67.99
63088;BME280;49173;43.164;27.786;2022-08-25T07:28:22;99857.88;;;26.60;68.11
63088;BME280;49173;43.164;27.786;2022-08-25T07:30:49;99854.53;;;26.65;68.27
63088;BME280;49173;43.164;27.786;2022-08-25T07:33:16;99843.75;;;26.70;68.89
63088;BME280;49173;43.164;27.786;2022-08-25T07:35:42;99862.84;;;26.78;68.68
63088;BME280;49173;43.164;27.786;2022-08-25T07:38:08;99852.94;;;26.83;68.89
63088;BME280;49173;43.164;27.786;2022-08-25T07:40:36;99846.84;;;26.88;68.49
63088;BME280;49173;43.164;27.786;2022-08-25T07:43:05;99850.69;;;26.94;67.84
63088;BME280;49173;43.164;27.786;2022-08-25T07:45:35;99843.91;;;26.96;67.19
63088;BME280;49173;43.164;27.786;2022-08-25T07:48:07;99854.78;;;27.04;67.19
63088;BME280;49173;43.164;27.786;2022-08-25T07:50:35;99851.22;;;27.10;66.83
63088;BME280;49173;43.164;27.786;2022-08-25T07:53:03;99849.34;;;27.18;66.84
63088;BME280;49173;43.164;27.786;2022-08-25T07:55:30;99844.94;;;27.23;66.05
63088;BME280;49173;43.164;27.786;2022-08-25T07:57:57;99848.97;;;27.27;65.30
63088;BME280;49173;43.164;27.786;2022-08-25T08:00:27;99844.75;;;27.31;65.38
63088;BME280;49173;43.164;27.786;2022-08-25T08:02:56;99837.56;;;27.37;65.20
63088;BME280;49173;43.164;27.786;2022-08-25T08:05:25;99826.53;;;27.37;64.05
63088;BME280;49173;43.164;27.786;2022-08-25T08:07:53;99825.06;;;27.41;63.98
63088;BME280;49173;43.164;27.786;2022-08-25T08:10:20;99830.41;;;27.49;64.56
63088;BME280;49173;43.164;27.786;2022-08-25T08:12:48;99827.47;;;27.57;63.90
63088;BME280;49173;43.164;27.786;2022-08-25T08:15:17;99823.06;;;27.70;63.09
63088;BME280;49173;43.164;27.786;2022-08-25T08:17:45;99814.78;;;27.76;62.43
63088;BME280;49173;43.164;27.786;2022-08-25T08:20:12;99814.44;;;27.99;64.38
63088;BME280;49173;43.164;27.786;2022-08-25T08:22:41;99818.22;;;28.11;61.04
63088;BME280;49173;43.164;27.786;2022-08-25T08:25:09;99807.19;;;28.18;60.63
63088;BME280;49173;43.164;27.786;2022-08-25T08:27:39;99809.13;;;28.37;60.02
63088;BME280;49173;43.164;27.786;2022-08-25T08:30:09;99809.34;;;28.49;58.84
63088;BME280;49173;43.164;27.786;2022-08-25T08:32:36;99813.56;;;28.58;57.93
63088;BME280;49173;43.164;27.786;2022-08-25T08:35:03;99787.25;;;28.62;55.92
63088;BME280;49173;43.164;27.786;2022-08-25T08:37:31;99784.66;;;28.74;56.70
63088;BME280;49173;43.164;27.786;2022-08-25T08:40:05;99797.81;;;28.85;55.78
63088;BME280;49173;43.164;27.786;2022-08-25T08:45:36;99794.19;;;28.91;55.13
63088;BME280;49173;43.164;27.786;2022-08-25T08:48:14;99790.56;;;29.04;55.42
63088;BME280;49173;43.164;27.786;2022-08-25T08:51:20;99787.97;;;29.09;54.92
63088;BME280;49173;43.164;27.786;2022-08-25T08:54:22;99787.72;;;29.17;54.68
63088;BME280;49173;43.164;27.786;2022-08-25T08:57:01;99782.41;;;29.16;52.29
63088;BME280;49173;43.164;27.786;2022-08-25T08:59:45;99779.38;;;29.24;52.84
63088;BME280;49173;43.164;27.786;2022-08-25T09:02:25;99776.78;;;29.36;52.41
63088;BME280;49173;43.164;27.786;2022-08-25T09:05:00;99770.75;;;29.45;53.16
63088;BME280;49173;43.164;27.786;2022-08-25T09:07:34;99759.28;;;29.55;50.15
63088;BME280;49173;43.164;27.786;2022-08-25T09:10:04;99771.56;;;29.59;50.25
63088;BME280;49173;43.164;27.786;2022-08-25T09:15:38;99770.03;;;29.70;47.91
63088;BME280;49173;43.164;27.786;2022-08-25T09:21:13;99760.31;;;29.61;48.73
63088;BME280;49173;43.164;27.786;2022-08-25T09:29:17;99751.50;;;29.70;47.96
63088;BME280;49173;43.164;27.786;2022-08-25T09:31:46;99758.50;;;29.73;47.92
63088;BME280;49173;43.164;27.786;2022-08-25T09:34:18;99745.06;;;29.76;47.45
63088;BME280;49173;43.164;27.786;2022-08-25T09:36:45;99753.94;;;29.85;47.10
63088;BME280;49173;43.164;27.786;2022-08-25T09:39:13;99750.09;;;29.86;46.42
63088;BME280;49173;43.164;27.786;2022-08-25T09:41:58;99750.91;;;29.93;46.58
63088;BME280;49173;43.164;27.786;2022-08-25T09:46:59;99752.53;;;30.01;46.02
63088;BME280;49173;43.164;27.786;2022-08-25T09:49:42;99754.22;;;30.02;46.21
63088;BME280;49173;43.164;27.786;2022-08-25T09:54:55;99758.47;;;30.04;44.85
63088;BME280;49173;43.164;27.786;2022-08-25T10:02:37;99752.06;;;30.11;45.40
63088;BME280;49173;43.164;27.786;2022-08-25T10:05:46;99751.41;;;30.08;44.18
63088;BME280;49173;43.164;27.786;2022-08-25T10:08:37;99754.59;;;30.12;41.42
63088;BME280;49173;43.164;27.786;2022-08-25T10:11:08;99748.22;;;30.12;41.27
63088;BME280;49173;43.164;27.786;2022-08-25T10:13:49;99742.91;;;30.10;40.60
63088;BME280;49173;43.164;27.786;2022-08-25T10:16:26;99742.16;;;30.21;41.84
63088;BME280;49173;43.164;27.786;2022-08-25T10:21:26;99742.88;;;30.35;40.71
63088;BME280;49173;43.164;27.786;2022-08-25T10:23:53;99745.81;;;30.40;40.87
63088;BME280;49173;43.164;27.786;2022-08-25T10:26:47;99732.53;;;30.49;40.12
63088;BME280;49173;43.164;27.786;2022-08-25T10:32:15;99745.63;;;30.60;39.46
63088;BME280;49173;43.164;27.786;2022-08-25T10:34:48;99745.22;;;30.56;39.00
63088;BME280;49173;43.164;27.786;2022-08-25T10:43:37;99757.69;;;30.47;38.43
63088;BME280;49173;43.164;27.786;2022-08-25T10:46:35;99762.66;;;30.39;38.76
63088;BME280;49173;43.164;27.786;2022-08-25T10:51:44;99770.34;;;30.36;38.49
63088;BME280;49173;43.164;27.786;2022-08-25T10:54:28;99788.63;;;30.38;38.56
63088;BME280;49173;43.164;27.786;2022-08-25T10:57:22;99781.22;;;30.38;38.55
63088;BME280;49173;43.164;27.786;2022-08-25T11:05:27;99774.66;;;30.51;39.52
63088;BME280;49173;43.164;27.786;2022-08-25T11:08:30;99772.69;;;30.58;38.86
63088;BME280;49173;43.164;27.786;2022-08-25T11:11:06;99771.16;;;30.62;39.17
63088;BME280;49173;43.164;27.786;2022-08-25T11:13:43;99794.97;;;30.70;43.83
63088;BME280;49173;43.164;27.786;2022-08-25T11:16:21;99775.34;;;30.71;45.48
63088;BME280;49173;43.164;27.786;2022-08-25T11:27:05;99763.75;;;30.56;45.50
63088;BME280;49173;43.164;27.786;2022-08-25T11:29:38;99762.69;;;30.57;46.21
63088;BME280;49173;43.164;27.786;2022-08-25T11:32:08;99762.69;;;30.57;45.85
63088;BME280;49173;43.164;27.786;2022-08-25T11:34:35;99762.25;;;30.60;44.17
63088;BME280;49173;43.164;27.786;2022-08-25T11:37:19;99772.69;;;30.58;44.87
63088;BME280;49173;43.164;27.786;2022-08-25T11:40:10;99767.91;;;30.47;40.69
63088;BME280;49173;43.164;27.786;2022-08-25T11:52:00;99747.31;;;30.61;42.10
63088;BME280;49173;43.164;27.786;2022-08-25T11:54:42;99752.13;;;30.66;37.69
63088;BME280;49173;43.164;27.786;2022-08-25T12:02:29;99765.44;;;30.39;37.82
63088;BME280;49173;43.164;27.786;2022-08-25T12:04:56;99761.66;;;30.33;36.50
63088;BME280;49173;43.164;27.786;2022-08-25T12:07:30;99760.47;;;30.22;36.06
63088;BME280;49173;43.164;27.786;2022-08-25T12:10:21;99747.69;;;30.21;36.51
63088;BME280;49173;43.164;27.786;2022-08-25T12:15:32;99744.75;;;30.16;39.21
63088;BME280;49173;43.164;27.786;2022-08-25T12:18:14;99749.84;;;30.19;39.48
63088;BME280;49173;43.164;27.786;2022-08-25T12:28:51;99765.66;;;30.37;40.26
63088;BME280;49173;43.164;27.786;2022-08-25T12:31:51;99771.09;;;30.25;40.90
63088;BME280;49173;43.164;27.786;2022-08-25T12:37:20;99754.44;;;30.00;42.65
63088;BME280;49173;43.164;27.786;2022-08-25T12:42:29;99757.31;;;30.19;41.34
63088;BME280;49173;43.164;27.786;2022-08-25T12:47:53;99752.06;;;30.11;40.30
63088;BME280;49173;43.164;27.786;2022-08-25T12:50:41;99752.91;;;30.11;41.25
63088;BME280;49173;43.164;27.786;2022-08-25T12:53:37;99763.53;;;30.14;41.77
63088;BME280;49173;43.164;27.786;2022-08-25T12:56:06;99758.44;;;30.11;41.61
63088;BME280;49173;43.164;27.786;2022-08-25T13:01:42;99779.69;;;30.17;42.73
63088;BME280;49173;43.164;27.786;2022-08-25T13:07:23;99751.53;;;30.20;43.28
63088;BME280;49173;43.164;27.786;2022-08-25T13:10:10;99748.16;;;30.18;43.12
63088;BME280;49173;43.164;27.786;2022-08-25T13:15:41;99748.88;;;30.07;42.42
63088;BME280;49173;43.164;27.786;2022-08-25T13:18:22;99745.31;;;30.00;42.31
63088;BME280;49173;43.164;27.786;2022-08-25T13:21:18;99740.84;;;29.99;40.13
63088;BME280;49173;43.164;27.786;2022-08-25T13:23:48;99742.66;;;29.87;39.54
63088;BME280;49173;43.164;27.786;2022-08-25T13:26:35;99733.22;;;29.94;40.20
63088;BME280;49173;43.164;27.786;2022-08-25T13:29:13;99743.31;;;30.07;39.78
63088;BME280;49173;43.164;27.786;2022-08-25T13:31:58;99744.09;;;29.96;40.12
63088;BME280;49173;43.164;27.786;2022-08-25T13:34:28;99743.84;;;29.97;40.02
63088;BME280;49173;43.164;27.786;2022-08-25T13:37:08;99748.75;;;29.95;41.04
63088;BME280;49173;43.164;27.786;2022-08-25T13:42:44;99736.03;;;29.88;40.17
63088;BME280;49173;43.164;27.786;2022-08-25T13:45:15;99756.03;;;29.90;39.43
63088;BME280;49173;43.164;27.786;2022-08-25T13:47:43;99756.03;;;29.90;39.26
63088;BME280;49173;43.164;27.786;2022-08-25T13:50:35;99755.25;;;29.83;39.41
63088;BME280;49173;43.164;27.786;2022-08-25T13:53:12;99758.22;;;29.81;39.57
63088;BME280;49173;43.164;27.786;2022-08-25T13:58:15;99746.88;;;29.64;39.43
63088;BME280;49173;43.164;27.786;2022-08-25T14:01:10;99748.13;;;29.68;39.97
63088;BME280;49173;43.164;27.786;2022-08-25T14:03:40;99752.34;;;29.71;40.44
63088;BME280;49173;43.164;27.786;2022-08-25T14:06:20;99766.41;;;29.69;39.78
63088;BME280;49173;43.164;27.786;2022-08-25T14:11:41;99760.56;;;29.46;42.09
63088;BME280;49173;43.164;27.786;2022-08-25T14:14:30;99755.03;;;29.46;41.18
63088;BME280;49173;43.164;27.786;2022-08-25T14:17:07;99762.72;;;29.37;41.19
63088;BME280;49173;43.164;27.786;2022-08-25T14:19:36;99759.19;;;29.23;41.31
63088;BME280;49173;43.164;27.786;2022-08-25T14:22:11;99759.88;;;29.19;42.15
63088;BME280;49173;43.164;27.786;2022-08-25T14:24:39;99756.69;;;29.15;42.06
63088;BME280;49173;43.164;27.786;2022-08-25T14:27:05;99752.47;;;29.13;42.21
63088;BME280;49173;43.164;27.786;2022-08-25T14:29:32;99747.56;;;29.08;41.05
63088;BME280;49173;43.164;27.786;2022-08-25T14:31:59;99749.94;;;29.05;41.35
63088;BME280;49173;43.164;27.786;2022-08-25T14:34:29;99753.59;;;28.98;41.25
63088;BME280;49173;43.164;27.786;2022-08-25T14:37:01;99748.88;;;29.06;41.95
63088;BME280;49173;43.164;27.786;2022-08-25T14:39:31;99737.16;;;29.10;41.82
63088;BME280;49173;43.164;27.786;2022-08-25T14:41:57;99750.75;;;29.18;41.40
63088;BME280;49173;43.164;27.786;2022-08-25T14:44:25;99758.81;;;29.20;40.66
63088;BME280;49173;43.164;27.786;2022-08-25T14:46:54;99762.25;;;29.09;39.73
63088;BME280;49173;43.164;27.786;2022-08-25T14:49:27;99766.34;;;28.86;41.03
63088;BME280;49173;43.164;27.786;2022-08-25T14:52:18;99767.22;;;28.73;41.30
63088;BME280;49173;43.164;27.786;2022-08-25T14:54:49;99762.16;;;28.70;41.79
63088;BME280;49173;43.164;27.786;2022-08-25T14:57:17;99768.09;;;28.61;42.48
63088;BME280;49173;43.164;27.786;2022-08-25T14:59:43;99765.16;;;28.62;42.94